sensor_id;sensor_type;location;lat;lon;timestamp;pressure;altitude;pressure_sealevel;temperature;humidity
17054;BME280;8643;48.824;11.422;2023-03-21T00:00:10;97128.84;;;5.77;100.00
17054;BME280;8643;48.824;11.422;2023-03-21T00:02:38;97123.09;;;5.78;100.00
17054;BME280;8643;48.824;11.422;2023-03-21T00:05:08;97122.53;;;5.81;100.00
17054;BME280;8643;48.824;11.422;2023-03-21T00:07:42;97117.63;;;5.83;100.00
17054;BME280;8643;48.824;11.422;2023-03-21T00:10:10;97122.22;;;5.83;100.00
17054;BME280;8643;48.824;11.422;2023-03-21T00:12:47;97109.13;;;5.85;100.00
17054;BME280;8643;48.824;11.422;2023-03-21T00:15:21;97119.72;;;5.86;100.00
17054;BME280;8643;48.824;11.422;2023-03-21T00:18:03;97113.69;;;5.90;100.00
17054;BME280;8643;48.824;11.422;2023-03-21T00:20:38;97118.03;;;5.91;100.00
17054;BME280;8643;48.824;11.422;2023-03-21T00:23:07;97121.25;;;5.93;100.00
17054;BME280;8643;48.824;11.422;2023-03-21T00:25:36;97123.47;;;5.91;100.00
17054;BME280;8643;48.824;11.422;2023-03-21T00:28:05;97125.38;;;5.90;100.00
17054;BME280;8643;48.824;11.422;2023-03-21T00:30:34;97130.53;;;5.92;100.00
17054;BME280;8643;48.824;11.422;2023-03-21T00:33:03;97130.53;;;5.92;100.00
17054;BME280;8643;48.824;11.422;2023-03-21T00:35:53;97125.69;;;5.88;100.00
17054;BME280;8643;48.824;11.422;2023-03-21T00:38:33;97128.03;;;5.95;100.00
17054;BME280;8643;48.824;11.422;2023-03-21T00:41:03;97120.09;;;5.99;100.00
17054;BME280;8643;48.824;11.422;2023-03-21T00:43:47;97120.09;;;5.99;100.00
17054;BME280;8643;48.824;11.422;2023-03-21T00:46:15;97117.94;;;5.96;100.00
17054;BME280;8643;48.824;11.422;2023-03-21T00:48:43;97109.28;;;5.94;100.00
17054;BME280;8643;48.824;11.422;2023-03-21T00:51:19;97109.59;;;5.92;100.00
17054;BME280;8643;48.824;11.422;2023-03-21T00:53:54;97108.50;;;5.93;100.00
17054;BME280;8643;48.824;11.422;2023-03-21T00:56:26;97103.06;;;5.93;100.00
17054;BME280;8643;48.824;11.422;2023-03-21T00:58:54;97105.25;;;5.91;100.00
17054;BME280;8643;48.824;11.422;2023-03-21T01:01:23;97098.28;;;5.85;100.00
17054;BME280;8643;48.824;11.422;2023-03-21T01:03:52;97098.28;;;5.85;100.00
17054;BME280;8643;48.824;11.422;2023-03-21T01:06:34;97091.53;;;5.82;100.00
17054;BME280;8643;48.824;11.422;2023-03-21T01:09:06;97094.75;;;5.84;100.00
17054;BME280;8643;48.824;11.422;2023-03-21T01:11:35;97102.91;;;5.84;100.00
17054;BME280;8643;48.824;11.422;2023-03-21T01:14:04;97096.59;;;5.89;100.00
17054;BME280;8643;48.824;11.422;2023-03-21T01:16:50;97087.63;;;5.88;100.00
17054;BME280;8643;48.824;11.422;2023-03-21T01:19:22;97089.81;;;5.86;100.00
17054;BME280;8643;48.824;11.422;2023-03-21T01:22:11;97092.25;;;5.88;100.00
17054;BME280;8643;48.824;11.422;2023-03-21T01:24:40;97084.53;;;5.95;100.00
17054;BME280;8643;48.824;11.422;2023-03-21T01:27:20;97086.97;;;5.97;100.00
17054;BME280;8643;48.824;11.422;2023-03-21T01:29:49;97088.56;;;5.98;100.00
17054;BME280;8643;48.824;11.422;2023-03-21T01:32:18;97088.28;;;5.99;100.00
17054;BME280;8643;48.824;11.422;2023-03-21T01:34:46;97091.81;;;6.00;100.00
17054;BME280;8643;48.824;11.422;2023-03-21T01:37:16;97090.91;;;6.04;100.00
17054;BME280;8643;48.824;11.422;2023-03-21T01:39:48;97082.16;;;6.08;100.00
17054;BME280;8643;48.824;11.422;2023-03-21T01:42:18;97082.69;;;6.10;100.00
17054;BME280;8643;48.824;11.422;2023-03-21T01:44:58;97090.13;;;6.04;100.00
17054;BME280;8643;48.824;11.422;2023-03-21T01:47:38;97081.47;;;6.02;100.00
17054;BME280;8643;48.824;11.422;2023-03-21T01:50:25;97080.13;;;5.99;100.00
17054;BME280;8643;48.824;11.422;2023-03-21T01:53:21;97076.38;;;5.95;100.00
17054;BME280;8643;48.824;11.422;2023-03-21T01:55:55;97069.69;;;5.87;100.00
17054;BME280;8643;48.824;11.422;2023-03-21T01:58:58;97064.88;;;5.84;100.00
17054;BME280;8643;48.824;11.422;2023-03-21T02:02:00;97073.31;;;5.83;100.00
17054;BME280;8643;48.824;11.422;2023-03-21T02:04:39;97076.53;;;5.85;100.00
17054;BME280;8643;48.824;11.422;2023-03-21T02:07:18;97064.06;;;5.84;100.00
17054;BME280;8643;48.824;11.422;2023-03-21T02:09:59;97070.28;;;5.84;100.00
17054;BME280;8643;48.824;11.422;2023-03-21T02:12:28;97065.06;;;5.88;100.00
17054;BME280;8643;48.824;11.422;2023-03-21T02:14:57;97065.91;;;5.88;100.00
17054;BME280;8643;48.824;11.422;2023-03-21T02:17:52;97061.75;;;5.91;100.00
17054;BME280;8643;48.824;11.422;2023-03-21T02:21:15;97057.66;;;5.94;100.00
17054;BME280;8643;48.824;11.422;2023-03-21T02:24:20;97054.19;;;5.88;100.00
17054;BME280;8643;48.824;11.422;2023-03-21T02:27:00;97056.91;;;5.88;100.00
17054;BME280;8643;48.824;11.422;2023-03-21T02:30:24;97045.84;;;5.84;100.00
17054;BME280;8643;48.824;11.422;2023-03-21T02:36:21;97055.81;;;5.89;100.00
17054;BME280;8643;48.824;11.422;2023-03-21T02:39:07;97061.84;;;5.86;100.00
17054;BME280;8643;48.824;11.422;2023-03-21T02:41:48;97065.06;;;5.88;100.00
17054;BME280;8643;48.824;11.422;2023-03-21T02:44:37;97055.53;;;5.91;100.00
17054;BME280;8643;48.824;11.422;2023-03-21T02:47:13;97056.84;;;5.93;100.00
17054;BME280;8643;48.824;11.422;2023-03-21T02:49:50;97059.56;;;5.93;100.00
17054;BME280;8643;48.824;11.422;2023-03-21T02:52:25;97061.97;;;5.95;100.00
17054;BME280;8643;48.824;11.422;2023-03-21T02:55:15;97062.28;;;5.93;100.00
17054;BME280;8643;48.824;11.422;2023-03-21T02:57:57;97055.22;;;5.92;100.00
17054;BME280;8643;48.824;11.422;2023-03-21T03:00:41;97055.53;;;5.91;100.00
17054;BME280;8643;48.824;11.422;2023-03-21T03:03:13;97050.59;;;5.93;100.00
17054;BME280;8643;48.824;11.422;2023-03-21T03:06:02;97047.56;;;5.94;100.00
17054;BME280;8643;48.824;11.422;2023-03-21T03:08:42;97050.38;;;5.89;100.00
17054;BME280;8643;48.824;11.422;2023-03-21T03:11:33;97049.06;;;5.86;100.00
17054;BME280;8643;48.824;11.422;2023-03-21T03:14:28;97048.25;;;5.86;100.00
17054;BME280;8643;48.824;11.422;2023-03-21T03:17:34;97047.75;;;5.84;100.00
17054;BME280;8643;48.824;11.422;2023-03-21T03:20:28;97049.69;;;5.83;100.00
17054;BME280;8643;48.824;11.422;2023-03-21T03:23:09;97041.81;;;5.82;100.00
17054;BME280;8643;48.824;11.422;2023-03-21T03:25:46;97049.97;;;5.82;100.00
17054;BME280;8643;48.824;11.422;2023-03-21T03:28:25;97047.56;;;5.80;100.00
17054;BME280;8643;48.824;11.422;2023-03-21T03:30:58;97045.72;;;5.76;100.00
17054;BME280;8643;48.824;11.422;2023-03-21T03:33:45;97047.31;;;5.77;100.00
17054;BME280;8643;48.824;11.422;2023-03-21T03:36:19;97047.72;;;5.70;100.00
17054;BME280;8643;48.824;11.422;2023-03-21T03:39:05;97035.66;;;5.76;100.00
17054;BME280;8643;48.824;11.422;2023-03-21T03:41:44;97045.22;;;5.74;100.00
17054;BME280;8643;48.824;11.422;2023-03-21T03:44:39;97041.47;;;5.69;100.00
17054;BME280;8643;48.824;11.422;2023-03-21T03:47:11;97036.63;;;5.66;100.00
17054;BME280;8643;48.824;11.422;2023-03-21T03:50:06;97038.25;;;5.67;100.00
17054;BME280;8643;48.824;11.422;2023-03-21T03:52:38;97041.56;;;5.64;100.00
17054;BME280;8643;48.824;11.422;2023-03-21T03:55:24;97036.72;;;5.61;100.00
17054;BME280;8643;48.824;11.422;2023-03-21T03:58:00;97037.53;;;5.62;100.00
17054;BME280;8643;48.824;11.422;2023-03-21T04:00:34;97038.34;;;5.62;100.00
17054;BME280;8643;48.824;11.422;2023-03-21T04:03:03;97036.22;;;5.59;100.00
17054;BME280;8643;48.824;11.422;2023-03-21T04:05:33;97036.22;;;5.59;100.00
17054;BME280;8643;48.824;11.422;2023-03-21T04:08:03;97042.16;;;5.61;100.00
17054;BME280;8643;48.824;11.422;2023-03-21T04:10:39;97032.38;;;5.60;100.00
17054;BME280;8643;48.824;11.422;2023-03-21T04:13:09;97033.22;;;5.61;100.00
17054;BME280;8643;48.824;11.422;2023-03-21T04:15:47;97025.94;;;5.56;100.00
17054;BME280;8643;48.824;11.422;2023-03-21T04:18:16;97027.63;;;5.52;100.00
17054;BME280;8643;48.824;11.422;2023-03-21T04:20:45;97031.75;;;5.49;100.00
17054;BME280;8643;48.824;11.422;2023-03-21T04:23:15;97037.56;;;5.43;100.00
17054;BME280;8643;48.824;11.422;2023-03-21T04:25:46;97038.38;;;5.43;100.00
17054;BME280;8643;48.824;11.422;2023-03-21T04:28:30;97032.66;;;5.45;100.00
17054;BME280;8643;48.824;11.422;2023-03-21T04:31:21;97031.59;;;5.41;100.00
17054;BME280;8643;48.824;11.422;2023-03-21T04:34:10;97040.97;;;5.35;100.00
17054;BME280;8643;48.824;11.422;2023-03-21T04:36:43;97035.28;;;5.31;100.00
17054;BME280;8643;48.824;11.422;2023-03-21T04:39:14;97036.19;;;5.26;100.00
17054;BME280;8643;48.824;11.422;2023-03-21T04:41:46;97036.78;;;5.23;100.00
17054;BME280;8643;48.824;11.422;2023-03-21T04:44:17;97043.31;;;5.22;100.00
17054;BME280;8643;48.824;11.422;2023-03-21T04:46:47;97027.31;;;5.21;100.00
17054;BME280;8643;48.824;11.422;2023-03-21T04:49:16;97028.47;;;5.14;100.00
17054;BME280;8643;48.824;11.422;2023-03-21T04:51:45;97039.72;;;5.08;100.00
17054;BME280;8643;48.824;11.422;2023-03-21T04:54:18;97036.78;;;5.04;100.00
17054;BME280;8643;48.824;11.422;2023-03-21T04:56:47;97035.75;;;5.00;100.00
17054;BME280;8643;48.824;11.422;2023-03-21T04:59:15;97037.94;;;4.98;100.00
17054;BME280;8643;48.824;11.422;2023-03-21T05:01:44;97034.34;;;5.03;100.00
17054;BME280;8643;48.824;11.422;2023-03-21T05:04:15;97035.91;;;5.09;100.00
17054;BME280;8643;48.824;11.422;2023-03-21T05:06:45;97039.13;;;5.11;100.00
17054;BME280;8643;48.824;11.422;2023-03-21T05:09:15;97040.47;;;5.13;100.00
17054;BME280;8643;48.824;11.422;2023-03-21T05:11:44;97042.25;;;5.18;100.00
17054;BME280;8643;48.824;11.422;2023-03-21T05:14:17;97040.81;;;5.26;100.00
17054;BME280;8643;48.824;11.422;2023-03-21T05:16:47;97039.13;;;5.30;100.00
17054;BME280;8643;48.824;11.422;2023-03-21T05:19:24;97035.28;;;5.31;100.00
17054;BME280;8643;48.824;11.422;2023-03-21T05:22:05;97038.84;;;5.31;100.00
17054;BME280;8643;48.824;11.422;2023-03-21T05:24:35;97039.25;;;5.39;100.00
17054;BME280;8643;48.824;11.422;2023-03-21T05:27:08;97040.78;;;5.45;100.00
17054;BME280;8643;48.824;11.422;2023-03-21T05:29:44;97046.66;;;5.52;100.00
17054;BME280;8643;48.824;11.422;2023-03-21T05:32:12;97040.41;;;5.51;100.00
17054;BME280;8643;48.824;11.422;2023-03-21T05:34:42;97045.47;;;5.58;100.00
17054;BME280;8643;48.824;11.422;2023-03-21T05:37:12;97051.09;;;5.62;100.00
17054;BME280;8643;48.824;11.422;2023-03-21T05:39:47;97047.78;;;5.65;100.00
17054;BME280;8643;48.824;11.422;2023-03-21T05:42:22;97046.03;;;5.74;100.00
17054;BME280;8643;48.824;11.422;2023-03-21T05:44:51;97043.09;;;5.71;100.00
17054;BME280;8643;48.824;11.422;2023-03-21T05:47:25;97048.84;;;5.69;100.00
17054;BME280;8643;48.824;11.422;2023-03-21T05:49:57;97049.63;;;5.69;100.00
17054;BME280;8643;48.824;11.422;2023-03-21T05:52:26;97053.38;;;5.74;100.00
17054;BME280;8643;48.824;11.422;2023-03-21T05:54:57;97052.47;;;5.78;100.00
17054;BME280;8643;48.824;11.422;2023-03-21T05:57:27;97049.97;;;5.82;100.00
17054;BME280;8643;48.824;11.422;2023-03-21T05:59:58;97052.91;;;5.85;100.00
17054;BME280;8643;48.824;11.422;2023-03-21T06:02:29;97053.19;;;5.84;100.00
17054;BME280;8643;48.824;11.422;2023-03-21T06:05:03;97050.97;;;5.86;100.00
17054;BME280;8643;48.824;11.422;2023-03-21T06:07:33;97055.22;;;5.92;100.00
17054;BME280;8643;48.824;11.422;2023-03-21T06:10:03;97055.66;;;5.99;100.00
17054;BME280;8643;48.824;11.422;2023-03-21T06:12:33;97052.56;;;6.06;100.00
17054;BME280;8643;48.824;11.422;2023-03-21T06:15:08;97048.34;;;6.14;100.00
17054;BME280;8643;48.824;11.422;2023-03-21T06:17:53;97047.03;;;6.25;100.00
17054;BME280;8643;48.824;11.422;2023-03-21T06:20:24;97059.16;;;6.33;100.00
17054;BME280;8643;48.824;11.422;2023-03-21T06:23:00;97057.13;;;6.38;100.00
17054;BME280;8643;48.824;11.422;2023-03-21T06:25:29;97059.97;;;6.47;100.00
17054;BME280;8643;48.824;11.422;2023-03-21T06:27:58;97054.53;;;6.47;100.00
17054;BME280;8643;48.824;11.422;2023-03-21T06:30:26;97055.53;;;6.51;100.00
17054;BME280;8643;48.824;11.422;2023-03-21T06:33:04;97063.38;;;6.53;100.00
17054;BME280;8643;48.824;11.422;2023-03-21T06:35:34;97058.97;;;6.57;100.00
17054;BME280;8643;48.824;11.422;2023-03-21T06:38:03;97062.06;;;6.64;100.00
17054;BME280;8643;48.824;11.422;2023-03-21T06:40:33;97064.38;;;6.71;100.00
17054;BME280;8643;48.824;11.422;2023-03-21T06:43:02;97064.78;;;6.78;100.00
17054;BME280;8643;48.824;11.422;2023-03-21T06:45:31;97062.88;;;6.78;100.00
17054;BME280;8643;48.824;11.422;2023-03-21T06:47:59;97066.81;;;6.86;100.00
17054;BME280;8643;48.824;11.422;2023-03-21T06:50:41;97065.06;;;6.90;100.00
17054;BME280;8643;48.824;11.422;2023-03-21T06:53:10;97066.75;;;7.00;100.00
17054;BME280;8643;48.824;11.422;2023-03-21T06:56:09;97066.34;;;7.07;100.00
17054;BME280;8643;48.824;11.422;2023-03-21T06:58:40;97062.59;;;7.16;100.00
17054;BME280;8643;48.824;11.422;2023-03-21T07:01:17;97055.63;;;7.24;100.00
17054;BME280;8643;48.824;11.422;2023-03-21T07:03:56;97065.50;;;7.20;100.00
17054;BME280;8643;48.824;11.422;2023-03-21T07:06:29;97058.22;;;7.29;100.00
17054;BME280;8643;48.824;11.422;2023-03-21T07:08:58;97065.25;;;7.44;100.00
17054;BME280;8643;48.824;11.422;2023-03-21T07:11:31;97063.81;;;7.47;100.00
17054;BME280;8643;48.824;11.422;2023-03-21T07:14:01;97067.22;;;7.52;100.00
17054;BME280;8643;48.824;11.422;2023-03-21T07:16:30;97066.13;;;7.53;100.00
17054;BME280;8643;48.824;11.422;2023-03-21T07:18:58;97066.03;;;7.67;100.00
17054;BME280;8643;48.824;11.422;2023-03-21T07:21:28;97061.16;;;7.78;100.00
17054;BME280;8643;48.824;11.422;2023-03-21T07:23:58;97064.06;;;7.82;100.00
17054;BME280;8643;48.824;11.422;2023-03-21T07:26:27;97064.38;;;8.03;100.00
17054;BME280;8643;48.824;11.422;2023-03-21T07:28:57;97067.91;;;8.03;100.00
17054;BME280;8643;48.824;11.422;2023-03-21T07:31:27;97060.97;;;8.29;100.00
17054;BME280;8643;48.824;11.422;2023-03-21T07:33:56;97071.84;;;8.51;100.00
17054;BME280;8643;48.824;11.422;2023-03-21T07:36:24;97073.44;;;8.43;100.00
17054;BME280;8643;48.824;11.422;2023-03-21T07:38:55;97072.66;;;8.52;100.00
17054;BME280;8643;48.824;11.422;2023-03-21T07:41:24;97070.94;;;8.33;100.00
17054;BME280;8643;48.824;11.422;2023-03-21T07:43:55;97068.97;;;8.48;100.00
17054;BME280;8643;48.824;11.422;2023-03-21T07:46:32;97068.41;;;8.37;100.00
17054;BME280;8643;48.824;11.422;2023-03-21T07:49:00;97072.00;;;8.46;100.00
17054;BME280;8643;48.824;11.422;2023-03-21T07:51:29;97077.97;;;8.57;100.00
17054;BME280;8643;48.824;11.422;2023-03-21T07:53:59;97066.00;;;8.75;100.00
17054;BME280;8643;48.824;11.422;2023-03-21T07:56:28;97073.72;;;8.82;100.00
17054;BME280;8643;48.824;11.422;2023-03-21T07:58:57;97067.97;;;9.01;100.00
17054;BME280;8643;48.824;11.422;2023-03-21T08:01:26;97069.94;;;9.18;100.00
17054;BME280;8643;48.824;11.422;2023-03-21T08:03:55;97077.31;;;9.00;100.00
17054;BME280;8643;48.824;11.422;2023-03-21T08:06:27;97071.84;;;9.00;100.00
17054;BME280;8643;48.824;11.422;2023-03-21T08:08:59;97073.78;;;8.99;100.00
17054;BME280;8643;48.824;11.422;2023-03-21T08:11:30;97076.84;;;9.07;100.00
17054;BME280;8643;48.824;11.422;2023-03-21T08:13:59;97074.13;;;9.07;100.00
17054;BME280;8643;48.824;11.422;2023-03-21T08:16:28;97073.66;;;9.22;100.00
17054;BME280;8643;48.824;11.422;2023-03-21T08:18:56;97079.78;;;9.54;100.00
17054;BME280;8643;48.824;11.422;2023-03-21T08:21:25;97076.22;;;9.88;100.00
17054;BME280;8643;48.824;11.422;2023-03-21T08:23:53;97070.88;;;10.09;100.00
17054;BME280;8643;48.824;11.422;2023-03-21T08:26:23;97067.78;;;10.20;100.00
17054;BME280;8643;48.824;11.422;2023-03-21T08:28:52;97074.38;;;10.45;100.00
17054;BME280;8643;48.824;11.422;2023-03-21T08:31:21;97071.81;;;10.40;100.00
17054;BME280;8643;48.824;11.422;2023-03-21T08:33:49;97071.53;;;10.62;100.00
17054;BME280;8643;48.824;11.422;2023-03-21T08:36:21;97074.88;;;11.07;100.00
17054;BME280;8643;48.824;11.422;2023-03-21T08:38:52;97067.63;;;11.32;100.00
17054;BME280;8643;48.824;11.422;2023-03-21T08:41:24;97065.41;;;11.67;100.00
17054;BME280;8643;48.824;11.422;2023-03-21T08:43:53;97055.88;;;11.86;100.00
17054;BME280;8643;48.824;11.422;2023-03-21T08:46:22;97062.19;;;11.86;100.00
17054;BME280;8643;48.824;11.422;2023-03-21T08:48:51;97060.84;;;11.50;100.00
17054;BME280;8643;48.824;11.422;2023-03-21T08:51:19;97057.44;;;11.96;100.00
17054;BME280;8643;48.824;11.422;2023-03-21T08:53:48;97053.69;;;12.58;100.00
17054;BME280;8643;48.824;11.422;2023-03-21T08:56:17;97057.22;;;13.33;97.48
17054;BME280;8643;48.824;11.422;2023-03-21T08:58:46;97059.03;;;14.10;92.67
17054;BME280;8643;48.824;11.422;2023-03-21T09:01:15;97051.53;;;14.55;87.15
17054;BME280;8643;48.824;11.422;2023-03-21T09:03:44;97058.13;;;14.66;88.84
17054;BME280;8643;48.824;11.422;2023-03-21T09:06:13;97048.59;;;15.11;82.08
17054;BME280;8643;48.824;11.422;2023-03-21T09:08:41;97052.72;;;16.81;75.12
17054;BME280;8643;48.824;11.422;2023-03-21T09:11:12;97056.84;;;17.74;68.84
17054;BME280;8643;48.824;11.422;2023-03-21T09:13:40;97052.47;;;17.70;63.81
17054;BME280;8643;48.824;11.422;2023-03-21T09:16:10;97051.00;;;17.80;65.80
17054;BME280;8643;48.824;11.422;2023-03-21T09:18:39;97045.94;;;18.19;56.97
17054;BME280;8643;48.824;11.422;2023-03-21T09:21:17;97051.78;;;16.96;61.65
17054;BME280;8643;48.824;11.422;2023-03-21T09:23:47;97051.63;;;17.66;61.50
17054;BME280;8643;48.824;11.422;2023-03-21T09:26:19;97052.59;;;18.11;61.98
17054;BME280;8643;48.824;11.422;2023-03-21T09:28:47;97052.09;;;19.32;62.06
17054;BME280;8643;48.824;11.422;2023-03-21T09:31:17;97045.22;;;19.82;54.35
17054;BME280;8643;48.824;11.422;2023-03-21T09:33:50;97048.50;;;16.87;56.21
17054;BME280;8643;48.824;11.422;2023-03-21T09:36:19;97044.19;;;18.41;57.49
17054;BME280;8643;48.824;11.422;2023-03-21T09:38:51;97041.16;;;18.57;54.86
17054;BME280;8643;48.824;11.422;2023-03-21T09:41:34;97045.88;;;17.21;59.28
17054;BME280;8643;48.824;11.422;2023-03-21T09:44:23;97043.88;;;14.48;66.19
17054;BME280;8643;48.824;11.422;2023-03-21T09:47:04;97041.91;;;13.88;70.40
17054;BME280;8643;48.824;11.422;2023-03-21T09:49:42;97036.66;;;14.11;66.86
17054;BME280;8643;48.824;11.422;2023-03-21T09:52:21;97037.25;;;14.65;66.00
17054;BME280;8643;48.824;11.422;2023-03-21T09:54:52;97035.09;;;14.90;67.66
17054;BME280;8643;48.824;11.422;2023-03-21T09:57:30;97039.72;;;14.86;67.64
17054;BME280;8643;48.824;11.422;2023-03-21T10:00:03;97037.94;;;14.46;69.03
17054;BME280;8643;48.824;11.422;2023-03-21T10:02:42;97037.88;;;14.14;66.86
17054;BME280;8643;48.824;11.422;2023-03-21T10:05:20;97038.38;;;13.88;64.87
17054;BME280;8643;48.824;11.422;2023-03-21T10:07:53;97031.59;;;14.45;63.79
17054;BME280;8643;48.824;11.422;2023-03-21T10:10:27;97034.28;;;16.19;62.50
17054;BME280;8643;48.824;11.422;2023-03-21T10:12:57;97034.22;;;16.85;60.42
17054;BME280;8643;48.824;11.422;2023-03-21T10:15:26;97029.25;;;16.94;55.96
17054;BME280;8643;48.824;11.422;2023-03-21T10:18:01;97032.34;;;16.89;59.58
17054;BME280;8643;48.824;11.422;2023-03-21T10:20:32;97029.34;;;16.78;54.57
17054;BME280;8643;48.824;11.422;2023-03-21T10:23:05;97027.59;;;16.90;54.25
17054;BME280;8643;48.824;11.422;2023-03-21T10:25:36;97013.22;;;17.34;54.95
17054;BME280;8643;48.824;11.422;2023-03-21T10:28:13;97014.34;;;17.90;53.06
17054;BME280;8643;48.824;11.422;2023-03-21T10:30:48;97021.00;;;17.55;52.94
17054;BME280;8643;48.824;11.422;2023-03-21T10:33:21;97012.88;;;18.00;56.16
17054;BME280;8643;48.824;11.422;2023-03-21T10:35:55;97003.25;;;19.20;54.96
17054;BME280;8643;48.824;11.422;2023-03-21T10:38:26;97006.19;;;18.86;50.91
17054;BME280;8643;48.824;11.422;2023-03-21T10:40:56;96996.47;;;19.14;52.68
17054;BME280;8643;48.824;11.422;2023-03-21T10:43:34;96998.69;;;18.91;49.30
17054;BME280;8643;48.824;11.422;2023-03-21T10:46:11;96995.69;;;18.21;50.52
17054;BME280;8643;48.824;11.422;2023-03-21T10:48:43;96998.53;;;18.28;51.49
17054;BME280;8643;48.824;11.422;2023-03-21T10:51:19;96992.88;;;18.62;50.80
17054;BME280;8643;48.824;11.422;2023-03-21T10:53:54;96995.09;;;18.86;49.47
17054;BME280;8643;48.824;11.422;2023-03-21T10:56:24;96980.94;;;19.06;50.43
17054;BME280;8643;48.824;11.422;2023-03-21T10:58:57;96982.38;;;18.37;47.61
17054;BME280;8643;48.824;11.422;2023-03-21T11:01:34;96980.53;;;19.04;50.87
17054;BME280;8643;48.824;11.422;2023-03-21T11:04:12;96974.91;;;19.67;47.63
17054;BME280;8643;48.824;11.422;2023-03-21T11:06:44;96973.13;;;18.71;47.10
17054;BME280;8643;48.824;11.422;2023-03-21T11:09:20;96976.03;;;17.31;50.20
17054;BME280;8643;48.824;11.422;2023-03-21T11:11:55;96973.88;;;18.16;52.45
17054;BME280;8643;48.824;11.422;2023-03-21T11:14:36;96965.91;;;19.99;47.30
17054;BME280;8643;48.824;11.422;2023-03-21T11:17:24;96958.84;;;20.41;43.47
17054;BME280;8643;48.824;11.422;2023-03-21T11:20:00;96961.63;;;20.84;45.16
17054;BME280;8643;48.824;11.422;2023-03-21T11:22:42;96954.88;;;22.02;43.46
17054;BME280;8643;48.824;11.422;2023-03-21T11:25:20;96967.63;;;22.63;41.22
17054;BME280;8643;48.824;11.422;2023-03-21T11:27:53;96961.50;;;22.30;42.34
17054;BME280;8643;48.824;11.422;2023-03-21T11:30:26;96961.44;;;19.69;43.62
17054;BME280;8643;48.824;11.422;2023-03-21T11:33:00;96957.75;;;18.80;47.01
17054;BME280;8643;48.824;11.422;2023-03-21T11:35:37;96955.13;;;18.95;46.71
17054;BME280;8643;48.824;11.422;2023-03-21T11:38:24;96959.41;;;19.58;44.00
17054;BME280;8643;48.824;11.422;2023-03-21T11:40:57;96953.66;;;20.43;44.18
17054;BME280;8643;48.824;11.422;2023-03-21T11:43:29;96947.03;;;21.83;43.48
17054;BME280;8643;48.824;11.422;2023-03-21T11:46:04;96940.75;;;21.60;40.69
17054;BME280;8643;48.824;11.422;2023-03-21T11:48:41;96931.78;;;20.02;41.65
17054;BME280;8643;48.824;11.422;2023-03-21T11:51:21;96931.06;;;19.20;44.52
17054;BME280;8643;48.824;11.422;2023-03-21T11:54:04;96922.22;;;19.88;43.88
17054;BME280;8643;48.824;11.422;2023-03-21T11:56:41;96922.13;;;19.67;41.11
17054;BME280;8643;48.824;11.422;2023-03-21T11:59:32;96920.44;;;19.37;44.57
17054;BME280;8643;48.824;11.422;2023-03-21T12:02:35;96910.34;;;20.17;48.60
17054;BME280;8643;48.824;11.422;2023-03-21T12:05:18;96917.88;;;20.95;41.61
17054;BME280;8643;48.824;11.422;2023-03-21T12:08:02;96907.97;;;20.11;43.67
17054;BME280;8643;48.824;11.422;2023-03-21T12:10:42;96902.00;;;18.96;45.73
17054;BME280;8643;48.824;11.422;2023-03-21T12:13:36;96898.69;;;19.50;47.75
17054;BME280;8643;48.824;11.422;2023-03-21T12:16:32;96900.78;;;20.93;44.23
17054;BME280;8643;48.824;11.422;2023-03-21T12:19:33;96895.25;;;20.64;43.50
17054;BME280;8643;48.824;11.422;2023-03-21T12:22:15;96894.31;;;21.32;41.33
17054;BME280;8643;48.824;11.422;2023-03-21T12:24:52;96899.91;;;19.56;44.67
17054;BME280;8643;48.824;11.422;2023-03-21T12:27:34;96898.50;;;18.47;46.99
17054;BME280;8643;48.824;11.422;2023-03-21T12:30:24;96889.19;;;18.22;50.16
17054;BME280;8643;48.824;11.422;2023-03-21T12:33:17;96890.59;;;19.12;45.20
17054;BME280;8643;48.824;11.422;2023-03-21T12:36:17;96883.13;;;19.34;48.70
17054;BME280;8643;48.824;11.422;2023-03-21T12:39:00;96874.78;;;19.23;47.22
17054;BME280;8643;48.824;11.422;2023-03-21T12:41:42;96875.25;;;19.36;47.83
17054;BME280;8643;48.824;11.422;2023-03-21T12:44:15;96886.38;;;18.70;46.92
17054;BME280;8643;48.824;11.422;2023-03-21T12:46:49;96868.81;;;19.18;48.09
17054;BME280;8643;48.824;11.422;2023-03-21T12:49:26;96863.53;;;18.88;48.55
17054;BME280;8643;48.824;11.422;2023-03-21T12:52:03;96860.31;;;20.13;45.10
17054;BME280;8643;48.824;11.422;2023-03-21T12:54:38;96855.94;;;20.48;44.31
17054;BME280;8643;48.824;11.422;2023-03-21T12:57:16;96856.34;;;19.92;44.19
17054;BME280;8643;48.824;11.422;2023-03-21T12:59:53;96859.41;;;21.06;43.55
17054;BME280;8643;48.824;11.422;2023-03-21T13:02:29;96847.47;;;21.05;42.77
17054;BME280;8643;48.824;11.422;2023-03-21T13:05:06;96853.97;;;20.38;45.28
17054;BME280;8643;48.824;11.422;2023-03-21T13:07:46;96839.81;;;21.98;42.58
17054;BME280;8643;48.824;11.422;2023-03-21T13:10:21;96843.78;;;21.34;44.47
17054;BME280;8643;48.824;11.422;2023-03-21T13:13:04;96834.84;;;20.72;43.36
17054;BME280;8643;48.824;11.422;2023-03-21T13:16:05;96840.41;;;20.61;42.79
17054;BME280;8643;48.824;11.422;2023-03-21T13:18:58;96835.06;;;21.24;43.86
17054;BME280;8643;48.824;11.422;2023-03-21T13:21:54;96825.91;;;22.43;41.97
17054;BME280;8643;48.824;11.422;2023-03-21T13:24:31;96829.38;;;21.53;42.45
17054;BME280;8643;48.824;11.422;2023-03-21T13:27:04;96831.56;;;20.99;42.87
17054;BME280;8643;48.824;11.422;2023-03-21T13:29:44;96820.22;;;19.96;43.51
17054;BME280;8643;48.824;11.422;2023-03-21T13:32:23;96815.03;;;20.09;45.90
17054;BME280;8643;48.824;11.422;2023-03-21T13:34:56;96811.09;;;20.06;45.35
17054;BME280;8643;48.824;11.422;2023-03-21T13:37:30;96803.50;;;20.43;43.37
17054;BME280;8643;48.824;11.422;2023-03-21T13:40:04;96807.91;;;20.08;45.93
17054;BME280;8643;48.824;11.422;2023-03-21T13:42:45;96803.13;;;19.76;43.32
17054;BME280;8643;48.824;11.422;2023-03-21T13:45:28;96798.72;;;19.53;45.99
17054;BME280;8643;48.824;11.422;2023-03-21T13:48:03;96804.34;;;20.00;43.36